sensor_id;sensor_type;location;lat;lon;timestamp;P1;durP1;ratioP1;P2;durP2;ratioP2
19089;SDS011;9677;50.656;13.064;2023-04-30T00:02:14;11.27;;;10.17;;
19089;SDS011;9677;50.656;13.064;2023-04-30T00:04:43;10.73;;;9.73;;
19089;SDS011;9677;50.656;13.064;2023-04-30T00:07:13;10.80;;;9.70;;
19089;SDS011;9677;50.656;13.064;2023-04-30T00:09:41;10.90;;;9.90;;
19089;SDS011;9677;50.656;13.064;2023-04-30T00:12:09;11.40;;;10.10;;
19089;SDS011;9677;50.656;13.064;2023-04-30T00:14:38;11.07;;;10.07;;
19089;SDS011;9677;50.656;13.064;2023-04-30T00:17:06;10.87;;;9.87;;
19089;SDS011;9677;50.656;13.064;2023-04-30T00:19:35;10.90;;;9.90;;
19089;SDS011;9677;50.656;13.064;2023-04-30T00:22:03;11.00;;;10.00;;
19089;SDS011;9677;50.656;13.064;2023-04-30T00:24:33;10.70;;;9.70;;
19089;SDS011;9677;50.656;13.064;2023-04-30T00:27:01;10.70;;;9.77;;
19089;SDS011;9677;50.656;13.064;2023-04-30T00:29:30;11.50;;;10.40;;
19089;SDS011;9677;50.656;13.064;2023-04-30T00:31:58;10.90;;;9.90;;
19089;SDS011;9677;50.656;13.064;2023-04-30T00:34:27;11.10;;;10.10;;
19089;SDS011;9677;50.656;13.064;2023-04-30T00:36:55;11.37;;;10.37;;
19089;SDS011;9677;50.656;13.064;2023-04-30T00:39:24;11.23;;;10.13;;
19089;SDS011;9677;50.656;13.064;2023-04-30T00:41:53;11.13;;;10.10;;
19089;SDS011;9677;50.656;13.064;2023-04-30T00:44:22;10.90;;;9.80;;
19089;SDS011;9677;50.656;13.064;2023-04-30T00:46:50;11.27;;;10.20;;
19089;SDS011;9677;50.656;13.064;2023-04-30T00:49:19;11.50;;;10.40;;
19089;SDS011;9677;50.656;13.064;2023-04-30T00:51:47;11.60;;;10.50;;
19089;SDS011;9677;50.656;13.064;2023-04-30T00:54:18;11.83;;;10.63;;
19089;SDS011;9677;50.656;13.064;2023-04-30T00:56:47;11.07;;;10.07;;
19089;SDS011;9677;50.656;13.064;2023-04-30T00:59:17;11.47;;;10.37;;
19089;SDS011;9677;50.656;13.064;2023-04-30T01:01:46;11.60;;;10.50;;
19089;SDS011;9677;50.656;13.064;2023-04-30T01:04:14;11.80;;;10.60;;
19089;SDS011;9677;50.656;13.064;2023-04-30T01:06:42;12.00;;;10.80;;
19089;SDS011;9677;50.656;13.064;2023-04-30T01:09:12;12.23;;;11.13;;
19089;SDS011;9677;50.656;13.064;2023-04-30T01:11:44;11.40;;;10.30;;
19089;SDS011;9677;50.656;13.064;2023-04-30T01:14:24;12.07;;;10.90;;
19089;SDS011;9677;50.656;13.064;2023-04-30T01:16:59;11.80;;;10.60;;
19089;SDS011;9677;50.656;13.064;2023-04-30T01:19:34;12.30;;;11.10;;
19089;SDS011;9677;50.656;13.064;2023-04-30T01:22:09;11.90;;;10.70;;
19089;SDS011;9677;50.656;13.064;2023-04-30T01:25:00;11.40;;;10.30;;
19089;SDS011;9677;50.656;13.064;2023-04-30T01:27:56;12.53;;;11.23;;
19089;SDS011;9677;50.656;13.064;2023-04-30T01:30:30;12.30;;;11.10;;
19089;SDS011;9677;50.656;13.064;2023-04-30T01:33:01;11.87;;;10.70;;
19089;SDS011;9677;50.656;13.064;2023-04-30T01:35:36;11.80;;;10.70;;
19089;SDS011;9677;50.656;13.064;2023-04-30T01:38:25;12.40;;;11.20;;
19089;SDS011;9677;50.656;13.064;2023-04-30T01:41:08;11.80;;;10.70;;
19089;SDS011;9677;50.656;13.064;2023-04-30T01:43:53;11.70;;;10.60;;
19089;SDS011;9677;50.656;13.064;2023-04-30T01:46:31;12.00;;;10.87;;
19089;SDS011;9677;50.656;13.064;2023-04-30T01:49:03;12.20;;;10.87;;
19089;SDS011;9677;50.656;13.064;2023-04-30T01:51:40;12.30;;;11.20;;
19089;SDS011;9677;50.656;13.064;2023-04-30T01:54:14;14.10;;;11.50;;
19089;SDS011;9677;50.656;13.064;2023-04-30T01:56:51;11.90;;;10.80;;
19089;SDS011;9677;50.656;13.064;2023-04-30T01:59:31;12.37;;;11.07;;
19089;SDS011;9677;50.656;13.064;2023-04-30T02:02:02;12.03;;;10.93;;
19089;SDS011;9677;50.656;13.064;2023-04-30T02:04:32;11.80;;;10.70;;
19089;SDS011;9677;50.656;13.064;2023-04-30T02:07:02;11.97;;;10.77;;
19089;SDS011;9677;50.656;13.064;2023-04-30T02:09:30;12.27;;;11.10;;
19089;SDS011;9677;50.656;13.064;2023-04-30T02:11:59;12.47;;;11.30;;
19089;SDS011;9677;50.656;13.064;2023-04-30T02:14:30;11.77;;;10.67;;
19089;SDS011;9677;50.656;13.064;2023-04-30T02:16:59;11.87;;;10.77;;
19089;SDS011;9677;50.656;13.064;2023-04-30T02:19:27;11.53;;;10.33;;
19089;SDS011;9677;50.656;13.064;2023-04-30T02:21:57;11.43;;;10.33;;
19089;SDS011;9677;50.656;13.064;2023-04-30T02:24:26;11.20;;;10.10;;
19089;SDS011;9677;50.656;13.064;2023-04-30T02:26:54;11.00;;;9.90;;
19089;SDS011;9677;50.656;13.064;2023-04-30T02:29:22;10.97;;;9.93;;
19089;SDS011;9677;50.656;13.064;2023-04-30T02:31:52;11.30;;;10.30;;
19089;SDS011;9677;50.656;13.064;2023-04-30T02:34:21;11.47;;;10.47;;
19089;SDS011;9677;50.656;13.064;2023-04-30T02:36:49;11.57;;;10.47;;
19089;SDS011;9677;50.656;13.064;2023-04-30T02:39:18;11.63;;;10.53;;
19089;SDS011;9677;50.656;13.064;2023-04-30T02:41:46;13.03;;;11.23;;
19089;SDS011;9677;50.656;13.064;2023-04-30T02:44:14;11.43;;;10.33;;
19089;SDS011;9677;50.656;13.064;2023-04-30T02:46:43;11.67;;;10.60;;
19089;SDS011;9677;50.656;13.064;2023-04-30T02:49:12;11.70;;;10.60;;
19089;SDS011;9677;50.656;13.064;2023-04-30T02:51:41;11.20;;;10.20;;
19089;SDS011;9677;50.656;13.064;2023-04-30T02:54:09;11.57;;;10.47;;
19089;SDS011;9677;50.656;13.064;2023-04-30T02:56:38;11.63;;;10.53;;
19089;SDS011;9677;50.656;13.064;2023-04-30T02:59:07;11.50;;;10.40;;
19089;SDS011;9677;50.656;13.064;2023-04-30T03:01:35;11.87;;;9.93;;
19089;SDS011;9677;50.656;13.064;2023-04-30T03:04:04;12.60;;;11.30;;
19089;SDS011;9677;50.656;13.064;2023-04-30T03:06:33;11.10;;;10.10;;
19089;SDS011;9677;50.656;13.064;2023-04-30T03:09:02;11.27;;;10.27;;
19089;SDS011;9677;50.656;13.064;2023-04-30T03:11:30;11.70;;;10.60;;
19089;SDS011;9677;50.656;13.064;2023-04-30T03:13:59;11.63;;;10.53;;
19089;SDS011;9677;50.656;13.064;2023-04-30T03:16:27;11.70;;;10.67;;
19089;SDS011;9677;50.656;13.064;2023-04-30T03:18:56;11.83;;;10.73;;
19089;SDS011;9677;50.656;13.064;2023-04-30T03:21:25;11.50;;;10.43;;
19089;SDS011;9677;50.656;13.064;2023-04-30T03:23:54;11.87;;;10.77;;
19089;SDS011;9677;50.656;13.064;2023-04-30T03:26:23;11.60;;;10.53;;
19089;SDS011;9677;50.656;13.064;2023-04-30T03:28:51;11.53;;;10.33;;
19089;SDS011;9677;50.656;13.064;2023-04-30T03:31:22;11.30;;;10.30;;
19089;SDS011;9677;50.656;13.064;2023-04-30T03:33:50;11.93;;;10.20;;
19089;SDS011;9677;50.656;13.064;2023-04-30T03:36:19;11.70;;;10.70;;
19089;SDS011;9677;50.656;13.064;2023-04-30T03:38:47;11.00;;;9.90;;
19089;SDS011;9677;50.656;13.064;2023-04-30T03:41:17;11.00;;;10.00;;
19089;SDS011;9677;50.656;13.064;2023-04-30T03:43:46;11.07;;;9.97;;
19089;SDS011;9677;50.656;13.064;2023-04-30T03:46:14;11.33;;;10.33;;
19089;SDS011;9677;50.656;13.064;2023-04-30T03:48:43;11.50;;;10.40;;
19089;SDS011;9677;50.656;13.064;2023-04-30T03:51:11;11.10;;;10.10;;
19089;SDS011;9677;50.656;13.064;2023-04-30T03:53:39;11.70;;;10.70;;
19089;SDS011;9677;50.656;13.064;2023-04-30T03:56:08;11.47;;;10.47;;
19089;SDS011;9677;50.656;13.064;2023-04-30T03:58:38;11.50;;;10.50;;
19089;SDS011;9677;50.656;13.064;2023-04-30T04:01:07;11.60;;;10.50;;
19089;SDS011;9677;50.656;13.064;2023-04-30T04:03:35;11.17;;;10.17;;
19089;SDS011;9677;50.656;13.064;2023-04-30T04:06:04;11.27;;;10.27;;
19089;SDS011;9677;50.656;13.064;2023-04-30T04:08:33;10.57;;;9.63;;
19089;SDS011;9677;50.656;13.064;2023-04-30T04:11:02;11.23;;;10.23;;
19089;SDS011;9677;50.656;13.064;2023-04-30T04:13:31;11.60;;;10.53;;
19089;SDS011;9677;50.656;13.064;2023-04-30T04:16:01;11.30;;;10.20;;
19089;SDS011;9677;50.656;13.064;2023-04-30T04:18:30;10.83;;;9.83;;
19089;SDS011;9677;50.656;13.064;2023-04-30T04:20:58;11.10;;;10.10;;
19089;SDS011;9677;50.656;13.064;2023-04-30T04:23:28;11.10;;;10.10;;
19089;SDS011;9677;50.656;13.064;2023-04-30T04:25:56;11.23;;;10.23;;
19089;SDS011;9677;50.656;13.064;2023-04-30T04:28:26;11.30;;;10.17;;
19089;SDS011;9677;50.656;13.064;2023-04-30T04:30:54;10.63;;;9.73;;
19089;SDS011;9677;50.656;13.064;2023-04-30T04:33:24;11.30;;;10.30;;
19089;SDS011;9677;50.656;13.064;2023-04-30T04:35:53;10.63;;;9.73;;
19089;SDS011;9677;50.656;13.064;2023-04-30T04:38:24;11.60;;;10.50;;
19089;SDS011;9677;50.656;13.064;2023-04-30T04:40:53;11.20;;;10.20;;
19089;SDS011;9677;50.656;13.064;2023-04-30T04:43:23;11.23;;;10.23;;
19089;SDS011;9677;50.656;13.064;2023-04-30T04:45:52;13.80;;;10.37;;
19089;SDS011;9677;50.656;13.064;2023-04-30T04:48:20;11.00;;;10.00;;
19089;SDS011;9677;50.656;13.064;2023-04-30T04:50:50;11.30;;;10.30;;
19089;SDS011;9677;50.656;13.064;2023-04-30T04:53:18;11.00;;;9.80;;
19089;SDS011;9677;50.656;13.064;2023-04-30T04:55:47;11.03;;;10.03;;
19089;SDS011;9677;50.656;13.064;2023-04-30T04:58:15;10.77;;;9.80;;
19089;SDS011;9677;50.656;13.064;2023-04-30T05:00:44;11.27;;;10.27;;
19089;SDS011;9677;50.656;13.064;2023-04-30T05:03:12;10.60;;;9.60;;
19089;SDS011;9677;50.656;13.064;2023-04-30T05:05:41;11.23;;;10.23;;
19089;SDS011;9677;50.656;13.064;2023-04-30T05:08:11;11.13;;;10.13;;
19089;SDS011;9677;50.656;13.064;2023-04-30T05:10:39;11.30;;;10.30;;
19089;SDS011;9677;50.656;13.064;2023-04-30T05:13:08;11.90;;;10.70;;
19089;SDS011;9677;50.656;13.064;2023-04-30T05:15:36;11.37;;;10.30;;
19089;SDS011;9677;50.656;13.064;2023-04-30T05:18:04;11.23;;;10.23;;
19089;SDS011;9677;50.656;13.064;2023-04-30T05:20:33;11.43;;;10.33;;
19089;SDS011;9677;50.656;13.064;2023-04-30T05:23:01;11.47;;;10.47;;
19089;SDS011;9677;50.656;13.064;2023-04-30T05:25:32;11.23;;;10.00;;
19089;SDS011;9677;50.656;13.064;2023-04-30T05:28:02;11.10;;;10.00;;
19089;SDS011;9677;50.656;13.064;2023-04-30T05:30:30;11.40;;;10.20;;
19089;SDS011;9677;50.656;13.064;2023-04-30T05:32:59;10.50;;;9.60;;
19089;SDS011;9677;50.656;13.064;2023-04-30T05:35:27;10.87;;;9.80;;
19089;SDS011;9677;50.656;13.064;2023-04-30T05:37:57;11.40;;;10.30;;
19089;SDS011;9677;50.656;13.064;2023-04-30T05:40:25;11.13;;;10.13;;
19089;SDS011;9677;50.656;13.064;2023-04-30T05:42:55;10.50;;;9.60;;
19089;SDS011;9677;50.656;13.064;2023-04-30T05:45:23;11.50;;;10.40;;
19089;SDS011;9677;50.656;13.064;2023-04-30T05:47:52;11.07;;;10.00;;
19089;SDS011;9677;50.656;13.064;2023-04-30T05:50:20;11.73;;;10.17;;
19089;SDS011;9677;50.656;13.064;2023-04-30T05:52:49;11.90;;;10.80;;
19089;SDS011;9677;50.656;13.064;2023-04-30T05:55:17;10.80;;;9.80;;
19089;SDS011;9677;50.656;13.064;2023-04-30T05:57:45;11.47;;;10.27;;
19089;SDS011;9677;50.656;13.064;2023-04-30T06:00:15;11.53;;;10.43;;
19089;SDS011;9677;50.656;13.064;2023-04-30T06:02:44;11.57;;;10.50;;
19089;SDS011;9677;50.656;13.064;2023-04-30T06:05:13;11.07;;;10.07;;
19089;SDS011;9677;50.656;13.064;2023-04-30T06:07:41;11.00;;;10.00;;
19089;SDS011;9677;50.656;13.064;2023-04-30T06:10:10;11.20;;;10.00;;
19089;SDS011;9677;50.656;13.064;2023-04-30T06:12:39;11.03;;;10.03;;
19089;SDS011;9677;50.656;13.064;2023-04-30T06:15:07;10.60;;;9.70;;
19089;SDS011;9677;50.656;13.064;2023-04-30T06:17:38;10.87;;;9.87;;
19089;SDS011;9677;50.656;13.064;2023-04-30T06:20:07;11.30;;;10.10;;
19089;SDS011;9677;50.656;13.064;2023-04-30T06:22:36;10.90;;;9.80;;
19089;SDS011;9677;50.656;13.064;2023-04-30T06:25:07;10.70;;;9.70;;
19089;SDS011;9677;50.656;13.064;2023-04-30T06:27:36;10.80;;;9.80;;
19089;SDS011;9677;50.656;13.064;2023-04-30T06:30:05;10.70;;;9.70;;
19089;SDS011;9677;50.656;13.064;2023-04-30T06:32:35;10.93;;;9.93;;
19089;SDS011;9677;50.656;13.064;2023-04-30T06:35:05;11.30;;;10.20;;
19089;SDS011;9677;50.656;13.064;2023-04-30T06:37:34;10.93;;;9.93;;
19089;SDS011;9677;50.656;13.064;2023-04-30T06:40:04;10.50;;;9.60;;
19089;SDS011;9677;50.656;13.064;2023-04-30T06:42:34;10.57;;;9.57;;
19089;SDS011;9677;50.656;13.064;2023-04-30T06:45:02;10.93;;;9.90;;
19089;SDS011;9677;50.656;13.064;2023-04-30T06:47:32;11.20;;;10.20;;
19089;SDS011;9677;50.656;13.064;2023-04-30T06:50:03;11.37;;;10.37;;
19089;SDS011;9677;50.656;13.064;2023-04-30T06:52:33;13.10;;;10.03;;
19089;SDS011;9677;50.656;13.064;2023-04-30T06:55:01;11.40;;;10.30;;
19089;SDS011;9677;50.656;13.064;2023-04-30T06:57:30;11.10;;;10.07;;
19089;SDS011;9677;50.656;13.064;2023-04-30T06:59:58;10.70;;;9.80;;
19089;SDS011;9677;50.656;13.064;2023-04-30T07:02:27;10.50;;;9.60;;
19089;SDS011;9677;50.656;13.064;2023-04-30T07:04:56;10.93;;;9.90;;
19089;SDS011;9677;50.656;13.064;2023-04-30T07:07:26;11.27;;;10.17;;
19089;SDS011;9677;50.656;13.064;2023-04-30T07:09:55;11.77;;;10.57;;
19089;SDS011;9677;50.656;13.064;2023-04-30T07:12:23;11.10;;;10.10;;
19089;SDS011;9677;50.656;13.064;2023-04-30T07:14:52;11.17;;;9.97;;
19089;SDS011;9677;50.656;13.064;2023-04-30T07:17:20;10.60;;;9.60;;
19089;SDS011;9677;50.656;13.064;2023-04-30T07:19:52;11.13;;;10.13;;
19089;SDS011;9677;50.656;13.064;2023-04-30T07:22:20;10.70;;;9.70;;
19089;SDS011;9677;50.656;13.064;2023-04-30T07:24:50;11.30;;;10.30;;
19089;SDS011;9677;50.656;13.064;2023-04-30T07:27:18;10.87;;;9.87;;
19089;SDS011;9677;50.656;13.064;2023-04-30T07:29:47;11.07;;;9.97;;
19089;SDS011;9677;50.656;13.064;2023-04-30T07:32:15;10.97;;;9.97;;
19089;SDS011;9677;50.656;13.064;2023-04-30T07:34:44;10.90;;;9.80;;
19089;SDS011;9677;50.656;13.064;2023-04-30T07:37:12;10.73;;;9.73;;
19089;SDS011;9677;50.656;13.064;2023-04-30T07:42:50;11.00;;;9.90;;
19089;SDS011;9677;50.656;13.064;2023-04-30T07:45:19;11.57;;;10.17;;
19089;SDS011;9677;50.656;13.064;2023-04-30T07:47:47;11.53;;;10.37;;
19089;SDS011;9677;50.656;13.064;2023-04-30T07:50:16;11.27;;;10.20;;
19089;SDS011;9677;50.656;13.064;2023-04-30T07:52:44;11.13;;;10.10;;
19089;SDS011;9677;50.656;13.064;2023-04-30T07:55:16;10.70;;;9.70;;
19089;SDS011;9677;50.656;13.064;2023-04-30T07:57:45;11.10;;;10.03;;
19089;SDS011;9677;50.656;13.064;2023-04-30T08:00:13;11.37;;;10.17;;
19089;SDS011;9677;50.656;13.064;2023-04-30T08:02:43;10.40;;;9.50;;
19089;SDS011;9677;50.656;13.064;2023-04-30T08:05:14;14.10;;;9.80;;
19089;SDS011;9677;50.656;13.064;2023-04-30T08:07:42;11.10;;;10.00;;
19089;SDS011;9677;50.656;13.064;2023-04-30T08:10:10;10.37;;;9.47;;
19089;SDS011;9677;50.656;13.064;2023-04-30T08:12:40;10.13;;;9.23;;
19089;SDS011;9677;50.656;13.064;2023-04-30T08:15:09;10.47;;;9.57;;
19089;SDS011;9677;50.656;13.064;2023-04-30T08:17:38;10.40;;;9.43;;
19089;SDS011;9677;50.656;13.064;2023-04-30T08:20:06;11.20;;;10.00;;
19089;SDS011;9677;50.656;13.064;2023-04-30T08:22:36;10.70;;;9.70;;
19089;SDS011;9677;50.656;13.064;2023-04-30T08:25:05;10.70;;;9.70;;
19089;SDS011;9677;50.656;13.064;2023-04-30T08:27:34;10.40;;;9.40;;
19089;SDS011;9677;50.656;13.064;2023-04-30T08:30:04;10.47;;;9.37;;
19089;SDS011;9677;50.656;13.064;2023-04-30T08:32:34;10.57;;;9.57;;
19089;SDS011;9677;50.656;13.064;2023-04-30T08:35:04;11.30;;;9.90;;
19089;SDS011;9677;50.656;13.064;2023-04-30T08:37:33;10.50;;;9.50;;
19089;SDS011;9677;50.656;13.064;2023-04-30T08:40:02;10.50;;;9.40;;
19089;SDS011;9677;50.656;13.064;2023-04-30T08:42:35;10.50;;;9.50;;
19089;SDS011;9677;50.656;13.064;2023-04-30T08:45:06;10.53;;;9.57;;
19089;SDS011;9677;50.656;13.064;2023-04-30T08:47:38;10.60;;;9.57;;
19089;SDS011;9677;50.656;13.064;2023-04-30T08:50:08;11.03;;;10.03;;
19089;SDS011;9677;50.656;13.064;2023-04-30T08:52:37;11.20;;;9.90;;
19089;SDS011;9677;50.656;13.064;2023-04-30T08:55:07;10.60;;;9.60;;
19089;SDS011;9677;50.656;13.064;2023-04-30T08:57:36;10.10;;;9.10;;
19089;SDS011;9677;50.656;13.064;2023-04-30T09:00:07;10.43;;;9.43;;
19089;SDS011;9677;50.656;13.064;2023-04-30T09:02:38;10.20;;;9.30;;
19089;SDS011;9677;50.656;13.064;2023-04-30T09:05:08;10.13;;;9.23;;
19089;SDS011;9677;50.656;13.064;2023-04-30T09:07:39;10.97;;;9.97;;
19089;SDS011;9677;50.656;13.064;2023-04-30T09:10:30;10.00;;;9.10;;
19089;SDS011;9677;50.656;13.064;2023-04-30T09:13:00;10.10;;;9.20;;
19089;SDS011;9677;50.656;13.064;2023-04-30T09:15:32;10.37;;;9.40;;
19089;SDS011;9677;50.656;13.064;2023-04-30T09:18:06;10.63;;;9.30;;
19089;SDS011;9677;50.656;13.064;2023-04-30T09:20:37;10.53;;;9.47;;
19089;SDS011;9677;50.656;13.064;2023-04-30T09:23:20;10.10;;;9.20;;
19089;SDS011;9677;50.656;13.064;2023-04-30T09:25:49;9.90;;;9.00;;
19089;SDS011;9677;50.656;13.064;2023-04-30T09:28:18;10.13;;;9.13;;
19089;SDS011;9677;50.656;13.064;2023-04-30T09:30:51;10.00;;;9.10;;
19089;SDS011;9677;50.656;13.064;2023-04-30T09:33:20;10.63;;;9.53;;
19089;SDS011;9677;50.656;13.064;2023-04-30T09:35:49;10.10;;;9.20;;
19089;SDS011;9677;50.656;13.064;2023-04-30T09:38:24;10.00;;;9.10;;
19089;SDS011;9677;50.656;13.064;2023-04-30T09:40:53;10.13;;;9.13;;
19089;SDS011;9677;50.656;13.064;2023-04-30T09:43:24;9.90;;;9.00;;
19089;SDS011;9677;50.656;13.064;2023-04-30T09:45:56;10.17;;;9.23;;
19089;SDS011;9677;50.656;13.064;2023-04-30T09:48:26;10.13;;;9.13;;
19089;SDS011;9677;50.656;13.064;2023-04-30T09:50:54;10.10;;;9.10;;
19089;SDS011;9677;50.656;13.064;2023-04-30T09:53:23;10.10;;;9.10;;
19089;SDS011;9677;50.656;13.064;2023-04-30T09:55:51;9.90;;;9.00;;
19089;SDS011;9677;50.656;13.064;2023-04-30T09:58:23;9.87;;;8.93;;
19089;SDS011;9677;50.656;13.064;2023-04-30T10:00:57;10.00;;;9.10;;
19089;SDS011;9677;50.656;13.064;2023-04-30T10:03:27;10.87;;;9.43;;
19089;SDS011;9677;50.656;13.064;2023-04-30T10:05:58;10.07;;;9.17;;
19089;SDS011;9677;50.656;13.064;2023-04-30T10:08:28;10.40;;;9.40;;
19089;SDS011;9677;50.656;13.064;2023-04-30T10:11:02;10.20;;;9.10;;
19089;SDS011;9677;50.656;13.064;2023-04-30T10:13:34;9.73;;;8.83;;
19089;SDS011;9677;50.656;13.064;2023-04-30T10:16:10;9.50;;;8.60;;
19089;SDS011;9677;50.656;13.064;2023-04-30T10:18:45;10.27;;;9.10;;
19089;SDS011;9677;50.656;13.064;2023-04-30T10:21:19;9.83;;;8.93;;
19089;SDS011;9677;50.656;13.064;2023-04-30T10:23:52;9.87;;;8.93;;
19089;SDS011;9677;50.656;13.064;2023-04-30T10:26:21;9.70;;;8.80;;
19089;SDS011;9677;50.656;13.064;2023-04-30T10:28:51;9.80;;;8.90;;
19089;SDS011;9677;50.656;13.064;2023-04-30T10:31:23;9.57;;;8.67;;
19089;SDS011;9677;50.656;13.064;2023-04-30T10:33:53;11.00;;;8.90;;
19089;SDS011;9677;50.656;13.064;2023-04-30T10:36:36;10.47;;;9.33;;
19089;SDS011;9677;50.656;13.064;2023-04-30T10:39:07;9.67;;;8.77;;
19089;SDS011;9677;50.656;13.064;2023-04-30T10:41:36;9.63;;;8.73;;
19089;SDS011;9677;50.656;13.064;2023-04-30T10:44:05;12.67;;;8.50;;
19089;SDS011;9677;50.656;13.064;2023-04-30T10:46:36;9.60;;;8.70;;
19089;SDS011;9677;50.656;13.064;2023-04-30T10:49:04;9.20;;;8.40;;
19089;SDS011;9677;50.656;13.064;2023-04-30T10:51:46;9.50;;;8.60;;
19089;SDS011;9677;50.656;13.064;2023-04-30T10:54:21;9.87;;;8.87;;
19089;SDS011;9677;50.656;13.064;2023-04-30T10:56:53;9.53;;;8.63;;
19089;SDS011;9677;50.656;13.064;2023-04-30T10:59:37;9.40;;;8.50;;
19089;SDS011;9677;50.656;13.064;2023-04-30T11:02:07;9.60;;;8.70;;
19089;SDS011;9677;50.656;13.064;2023-04-30T11:07:45;9.60;;;8.60;;
19089;SDS011;9677;50.656;13.064;2023-04-30T11:10:16;9.53;;;8.63;;
19089;SDS011;9677;50.656;13.064;2023-04-30T11:12:48;9.30;;;8.40;;
19089;SDS011;9677;50.656;13.064;2023-04-30T11:15:18;9.47;;;8.50;;
19089;SDS011;9677;50.656;13.064;2023-04-30T11:17:49;9.90;;;8.90;;
19089;SDS011;9677;50.656;13.064;2023-04-30T11:20:19;9.83;;;8.93;;
19089;SDS011;9677;50.656;13.064;2023-04-30T11:25:38;9.30;;;8.47;;
19089;SDS011;9677;50.656;13.064;2023-04-30T11:28:09;9.50;;;8.60;;
19089;SDS011;9677;50.656;13.064;2023-04-30T11:30:49;8.90;;;8.10;;
19089;SDS011;9677;50.656;13.064;2023-04-30T11:33:20;9.20;;;8.30;;
19089;SDS011;9677;50.656;13.064;2023-04-30T11:35:49;9.57;;;8.60;;
19089;SDS011;9677;50.656;13.064;2023-04-30T11:38:19;9.30;;;8.43;;
19089;SDS011;9677;50.656;13.064;2023-04-30T11:40:49;9.67;;;8.77;;
19089;SDS011;9677;50.656;13.064;2023-04-30T11:43:20;9.37;;;8.50;;
19089;SDS011;9677;50.656;13.064;2023-04-30T11:46:03;9.70;;;8.57;;
19089;SDS011;9677;50.656;13.064;2023-04-30T11:48:36;9.63;;;8.73;;
19089;SDS011;9677;50.656;13.064;2023-04-30T11:51:12;9.53;;;8.53;;
19089;SDS011;9677;50.656;13.064;2023-04-30T11:53:42;9.20;;;8.40;;
19089;SDS011;9677;50.656;13.064;2023-04-30T11:56:13;9.37;;;8.47;;
19089;SDS011;9677;50.656;13.064;2023-04-30T11:58:45;9.37;;;8.50;;
19089;SDS011;9677;50.656;13.064;2023-04-30T12:01:14;9.23;;;8.43;;
19089;SDS011;9677;50.656;13.064;2023-04-30T12:03:44;9.10;;;8.30;;
19089;SDS011;9677;50.656;13.064;2023-04-30T12:06:20;9.10;;;8.30;;
19089;SDS011;9677;50.656;13.064;2023-04-30T12:08:51;9.33;;;8.43;;
19089;SDS011;9677;50.656;13.064;2023-04-30T12:11:20;9.27;;;8.40;;
19089;SDS011;9677;50.656;13.064;2023-04-30T12:13:52;11.10;;;8.50;;
19089;SDS011;9677;50.656;13.064;2023-04-30T12:16:22;9.40;;;8.40;;
19089;SDS011;9677;50.656;13.064;2023-04-30T12:18:53;9.20;;;8.40;;
19089;SDS011;9677;50.656;13.064;2023-04-30T12:21:21;9.30;;;8.40;;
19089;SDS011;9677;50.656;13.064;2023-04-30T12:23:50;9.40;;;8.50;;
19089;SDS011;9677;50.656;13.064;2023-04-30T12:26:19;9.27;;;8.37;;
19089;SDS011;9677;50.656;13.064;2023-04-30T12:28:47;9.10;;;8.30;;
19089;SDS011;9677;50.656;13.064;2023-04-30T12:31:16;9.00;;;8.20;;
19089;SDS011;9677;50.656;13.064;2023-04-30T12:33:53;9.20;;;8.40;;
19089;SDS011;9677;50.656;13.064;2023-04-30T12:36:28;9.00;;;8.20;;
19089;SDS011;9677;50.656;13.064;2023-04-30T12:39:02;9.00;;;8.20;;
19089;SDS011;9677;50.656;13.064;2023-04-30T12:41:38;9.00;;;8.20;;
19089;SDS011;9677;50.656;13.064;2023-04-30T12:44:15;9.23;;;8.33;;
19089;SDS011;9677;50.656;13.064;2023-04-30T12:46:45;8.97;;;8.17;;
19089;SDS011;9677;50.656;13.064;2023-04-30T12:49:22;8.90;;;8.10;;
19089;SDS011;9677;50.656;13.064;2023-04-30T12:51:56;8.70;;;7.90;;
19089;SDS011;9677;50.656;13.064;2023-04-30T12:54:27;9.83;;;8.40;;
19089;SDS011;9677;50.656;13.064;2023-04-30T12:56:57;9.07;;;8.27;;
19089;SDS011;9677;50.656;13.064;2023-04-30T12:59:27;9.27;;;8.37;;
19089;SDS011;9677;50.656;13.064;2023-04-30T13:02:04;9.10;;;8.30;;
19089;SDS011;9677;50.656;13.064;2023-04-30T13:04:36;8.80;;;8.00;;
19089;SDS011;9677;50.656;13.064;2023-04-30T13:07:05;8.60;;;7.87;;
19089;SDS011;9677;50.656;13.064;2023-04-30T13:09:34;10.30;;;8.33;;
19089;SDS011;9677;50.656;13.064;2023-04-30T13:12:03;8.80;;;8.00;;
19089;SDS011;9677;50.656;13.064;2023-04-30T13:14:32;8.90;;;8.10;;
19089;SDS011;9677;50.656;13.064;2023-04-30T13:17:01;8.83;;;7.93;;
19089;SDS011;9677;50.656;13.064;2023-04-30T13:19:32;8.80;;;8.00;;
19089;SDS011;9677;50.656;13.064;2023-04-30T13:22:02;8.90;;;8.10;;
19089;SDS011;9677;50.656;13.064;2023-04-30T13:24:30;8.53;;;7.83;;
19089;SDS011;9677;50.656;13.064;2023-04-30T13:26:59;9.13;;;8.20;;
19089;SDS011;9677;50.656;13.064;2023-04-30T13:29:28;8.50;;;7.80;;
19089;SDS011;9677;50.656;13.064;2023-04-30T13:31:57;9.03;;;8.23;;
19089;SDS011;9677;50.656;13.064;2023-04-30T13:34:25;8.83;;;8.03;;
19089;SDS011;9677;50.656;13.064;2023-04-30T13:36:53;8.90;;;8.10;;
19089;SDS011;9677;50.656;13.064;2023-04-30T13:39:23;8.63;;;7.83;;
19089;SDS011;9677;50.656;13.064;2023-04-30T13:41:52;8.63;;;7.93;;
19089;SDS011;9677;50.656;13.064;2023-04-30T13:44:20;9.47;;;8.47;;
19089;SDS011;9677;50.656;13.064;2023-04-30T13:46:48;8.80;;;8.00;;
19089;SDS011;9677;50.656;13.064;2023-04-30T13:49:17;9.17;;;8.17;;
19089;SDS011;9677;50.656;13.064;2023-04-30T13:51:45;8.57;;;7.87;;
19089;SDS011;9677;50.656;13.064;2023-04-30T13:54:13;9.00;;;8.13;;
19089;SDS011;9677;50.656;13.064;2023-04-30T13:56:43;9.13;;;8.33;;
19089;SDS011;9677;50.656;13.064;2023-04-30T13:59:11;9.03;;;8.23;;
19089;SDS011;9677;50.656;13.064;2023-04-30T14:01:40;9.97;;;8.00;;
19089;SDS011;9677;50.656;13.064;2023-04-30T14:04:08;8.83;;;8.00;;
19089;SDS011;9677;50.656;13.064;2023-04-30T14:06:37;8.87;;;8.10;;
19089;SDS011;9677;50.656;13.064;2023-04-30T14:09:05;8.90;;;8.10;;
19089;SDS011;9677;50.656;13.064;2023-04-30T14:11:34;8.60;;;7.90;;
19089;SDS011;9677;50.656;13.064;2023-04-30T14:14:04;14.00;;;8.30;;
19089;SDS011;9677;50.656;13.064;2023-04-30T14:16:32;8.90;;;8.10;;
19089;SDS011;9677;50.656;13.064;2023-04-30T14:19:01;8.90;;;8.10;;
19089;SDS011;9677;50.656;13.064;2023-04-30T14:21:29;8.87;;;8.10;;
19089;SDS011;9677;50.656;13.064;2023-04-30T14:23:58;9.10;;;8.30;;
19089;SDS011;9677;50.656;13.064;2023-04-30T14:26:27;9.10;;;8.30;;
19089;SDS011;9677;50.656;13.064;2023-04-30T14:28:55;9.13;;;8.33;;
19089;SDS011;9677;50.656;13.064;2023-04-30T14:31:25;8.90;;;8.10;;
19089;SDS011;9677;50.656;13.064;2023-04-30T14:33:54;9.27;;;8.30;;
19089;SDS011;9677;50.656;13.064;2023-04-30T14:36:22;9.23;;;8.20;;
19089;SDS011;9677;50.656;13.064;2023-04-30T14:38:50;10.37;;;8.23;;
19089;SDS011;9677;50.656;13.064;2023-04-30T14:41:19;9.27;;;8.37;;
19089;SDS011;9677;50.656;13.064;2023-04-30T14:43:47;9.23;;;8.20;;
19089;SDS011;9677;50.656;13.064;2023-04-30T14:46:18;8.80;;;8.00;;
19089;SDS011;9677;50.656;13.064;2023-04-30T14:48:47;9.20;;;8.40;;
19089;SDS011;9677;50.656;13.064;2023-04-30T14:51:16;8.77;;;8.00;;
19089;SDS011;9677;50.656;13.064;2023-04-30T14:53:44;8.90;;;8.10;;
19089;SDS011;9677;50.656;13.064;2023-04-30T14:56:12;9.00;;;8.20;;
19089;SDS011;9677;50.656;13.064;2023-04-30T14:58:41;9.07;;;8.23;;
19089;SDS011;9677;50.656;13.064;2023-04-30T15:01:09;8.70;;;8.00;;